createdAt,value
2022-12-23T00:03:59.389Z,16.30
2022-12-23T00:09:01.909Z,20.53
2022-12-23T00:14:22.838Z,14.53
2022-12-23T00:19:25.267Z,15.40
2022-12-23T00:24:27.757Z,14.30
2022-12-23T00:29:30.321Z,14.00
2022-12-23T00:34:32.866Z,12.30
2022-12-23T00:39:55.075Z,13.53
2022-12-23T00:45:15.805Z,17.90
2022-12-23T00:50:18.653Z,15.03
2022-12-23T00:55:21.516Z,16.40
2022-12-23T01:00:44.348Z,17.07
2022-12-23T01:05:46.926Z,22.27
2022-12-23T01:10:49.509Z,17.77
2022-12-23T01:15:52.190Z,18.90
2022-12-23T01:20:55.860Z,22.67
2022-12-23T01:25:59.847Z,19.53
2022-12-23T01:31:03.715Z,16.27
2022-12-23T01:36:08.473Z,19.63
2022-12-23T01:41:55.876Z,21.57
2022-12-23T01:46:58.434Z,24.07
2022-12-23T01:52:00.911Z,16.87
2022-12-23T01:57:03.750Z,17.73
2022-12-23T02:02:25.292Z,19.33
2022-12-23T02:07:47.204Z,19.03
2022-12-23T02:13:02.719Z,13.93
2022-12-23T02:18:23.044Z,17.47
2022-12-23T02:23:44.491Z,20.37
2022-12-23T02:29:05.416Z,21.67
2022-12-23T02:34:14.171Z,19.40
2022-12-23T02:39:31.259Z,19.87
2022-12-23T02:44:49.017Z,20.73
2022-12-23T02:49:55.920Z,25.60
2022-12-23T02:55:05.653Z,26.70
2022-12-23T03:00:09.014Z,38.07
2022-12-23T03:05:27.967Z,22.57
2022-12-23T03:10:45.757Z,20.13
2022-12-23T03:16:06.808Z,18.43
2022-12-23T03:21:22.111Z,26.00
2022-12-23T03:26:39.087Z,22.27
2022-12-23T03:31:44.315Z,20.77
2022-12-23T03:36:54.658Z,23.70
2022-12-23T03:42:04.096Z,20.70
2022-12-23T03:47:12.675Z,23.93
2022-12-23T03:52:22.523Z,31.93
2022-12-23T03:57:45.386Z,26.50
2022-12-23T04:03:10.001Z,28.23
2022-12-23T04:08:15.975Z,26.10
2022-12-23T04:13:18.589Z,24.37
2022-12-23T04:18:21.112Z,27.43
2022-12-23T04:23:23.629Z,33.90
2022-12-23T04:28:26.103Z,30.23
2022-12-23T04:33:28.633Z,32.60
2022-12-23T04:38:31.052Z,32.93
2022-12-23T04:43:33.536Z,31.37
2022-12-23T04:48:36.156Z,37.93
2022-12-23T04:53:39.249Z,38.17
2022-12-23T04:58:41.796Z,28.17
2022-12-23T05:03:44.318Z,34.23
2022-12-23T05:08:46.904Z,33.70
2022-12-23T05:13:49.380Z,29.83
2022-12-23T05:18:52.028Z,29.60
2022-12-23T05:23:54.792Z,23.67
2022-12-23T05:28:57.654Z,25.63
2022-12-23T05:34:05.977Z,25.13
2022-12-23T05:39:09.749Z,28.90
2022-12-23T05:44:12.206Z,20.10
2022-12-23T05:49:14.989Z,20.97
2022-12-23T05:54:17.502Z,24.47
2022-12-23T05:59:20.047Z,22.27
2022-12-23T06:04:22.603Z,21.73
2022-12-23T06:09:25.130Z,19.43
2022-12-23T06:14:29.268Z,20.53
2022-12-23T06:19:32.222Z,16.50
2022-12-23T06:24:34.799Z,20.83
2022-12-23T06:29:37.334Z,20.63
2022-12-23T06:34:39.784Z,19.43
2022-12-23T06:39:42.169Z,19.10
2022-12-23T06:44:44.987Z,20.30
2022-12-23T06:49:47.485Z,21.37
2022-12-23T06:54:49.944Z,18.77
2022-12-23T06:59:52.439Z,19.37
2022-12-23T07:04:54.935Z,19.80
2022-12-23T07:09:57.538Z,19.83
2022-12-23T07:15:00.173Z,22.07
2022-12-23T07:20:03.245Z,19.13
2022-12-23T07:25:06.223Z,21.70
2022-12-23T07:30:09.341Z,20.70
2022-12-23T07:35:11.770Z,28.37
2022-12-23T07:40:14.937Z,58.47
2022-12-23T07:45:17.491Z,25.07
2022-12-23T07:50:20.138Z,21.50
2022-12-23T07:55:22.951Z,16.33
2022-12-23T08:00:25.623Z,19.73
2022-12-23T08:05:28.270Z,24.03
2022-12-23T08:10:30.840Z,26.63
2022-12-23T08:15:33.402Z,26.47
2022-12-23T08:20:35.917Z,20.27
2022-12-23T08:25:38.533Z,31.40
2022-12-23T08:30:41.106Z,23.47
2022-12-23T08:35:43.683Z,28.27
2022-12-23T08:40:46.160Z,26.63
2022-12-23T08:45:48.809Z,29.80
2022-12-23T08:50:51.324Z,27.83
2022-12-23T08:55:53.940Z,27.17
2022-12-23T09:00:56.567Z,24.33
2022-12-23T09:05:59.587Z,22.90
2022-12-23T09:11:02.576Z,25.50
2022-12-23T09:16:05.790Z,19.67
2022-12-23T09:21:13.844Z,25.23
2022-12-23T09:26:23.004Z,31.93
2022-12-23T09:31:32.350Z,46.30
2022-12-23T09:36:38.548Z,40.47
2022-12-23T09:41:50.330Z,51.70
2022-12-23T09:46:57.453Z,16.27
2022-12-23T09:52:03.796Z,42.67
2022-12-23T09:57:57.633Z,20.50
2022-12-23T10:03:12.215Z,34.27
2022-12-23T10:08:51.432Z,36.60
2022-12-23T10:14:15.745Z,26.50
2022-12-23T10:19:32.032Z,21.90
2022-12-23T10:24:41.459Z,14.17
2022-12-23T10:29:44.065Z,22.63
2022-12-23T10:35:06.926Z,19.53
2022-12-23T10:40:35.132Z,16.33
2022-12-23T10:46:02.711Z,14.50
2022-12-23T10:51:14.822Z,17.70
2022-12-23T10:56:18.607Z,8.63
2022-12-23T11:01:27.034Z,19.27
2022-12-23T11:06:37.085Z,12.23
2022-12-23T11:12:01.272Z,11.57
2022-12-23T11:17:06.165Z,9.17
2022-12-23T11:22:24.872Z,15.47
2022-12-23T11:27:27.363Z,14.10
2022-12-23T11:32:30.398Z,9.40
2022-12-23T11:37:37.933Z,16.27
2022-12-23T11:42:41.745Z,8.87
2022-12-23T11:47:44.461Z,11.90
2022-12-23T11:52:52.418Z,11.57
2022-12-23T11:57:56.060Z,25.57
2022-12-23T12:03:03.439Z,19.03
2022-12-23T12:08:13.863Z,18.00
2022-12-23T12:13:22.846Z,22.67
2022-12-23T12:18:26.661Z,12.50
2022-12-23T12:23:34.116Z,13.63
2022-12-23T12:28:43.309Z,14.50
2022-12-23T12:34:03.639Z,16.43
2022-12-23T12:39:29.360Z,14.10
2022-12-23T12:44:52.046Z,14.30
2022-12-23T12:50:25.222Z,12.00
2022-12-23T12:55:36.938Z,10.47
2022-12-23T13:00:59.620Z,14.60
2022-12-23T13:06:14.360Z,17.27
2022-12-23T13:11:46.612Z,19.63
2022-12-23T13:17:17.777Z,17.07
2022-12-23T13:22:35.555Z,19.90
2022-12-23T13:27:57.988Z,18.70
2022-12-23T13:33:32.297Z,18.97
2022-12-23T13:38:54.725Z,20.77
2022-12-23T13:44:00.481Z,25.53
2022-12-23T13:49:28.546Z,21.60
2022-12-23T13:55:02.084Z,20.50
2022-12-23T14:00:19.597Z,19.23
2022-12-23T14:05:45.271Z,17.03
2022-12-23T14:11:19.901Z,18.97
2022-12-23T14:16:37.578Z,22.77
2022-12-23T14:21:58.821Z,20.57
2022-12-23T14:27:30.891Z,24.83
2022-12-23T14:32:57.495Z,23.73
2022-12-23T14:38:15.455Z,25.63
2022-12-23T14:43:31.147Z,24.00
2022-12-23T14:48:33.644Z,31.07
2022-12-23T14:53:59.462Z,29.43
2022-12-23T14:59:07.760Z,30.80
2022-12-23T15:04:19.462Z,27.43
2022-12-23T15:09:26.445Z,30.43
2022-12-23T15:14:39.504Z,29.23
2022-12-23T15:19:47.338Z,35.70
2022-12-23T15:24:50.064Z,33.27
2022-12-23T15:29:54.093Z,33.07
2022-12-23T15:35:03.602Z,38.87
2022-12-23T15:40:13.129Z,36.40
2022-12-23T15:45:31.155Z,43.60
2022-12-23T15:50:41.693Z,35.63
2022-12-23T15:55:45.431Z,41.20
2022-12-23T16:00:57.727Z,38.50
2022-12-23T16:06:16.975Z,34.17
2022-12-23T16:11:21.188Z,44.27
2022-12-23T16:16:41.002Z,44.93
2022-12-23T16:21:43.506Z,48.53
2022-12-23T16:26:46.166Z,47.37
2022-12-23T16:31:55.833Z,49.53
2022-12-23T16:37:01.868Z,55.40
2022-12-23T16:42:04.777Z,49.53
2022-12-23T16:47:15.333Z,60.30
2022-12-23T16:52:24.527Z,68.87
2022-12-23T16:57:27.046Z,64.03
2022-12-23T17:02:30.138Z,49.67
2022-12-23T17:07:32.577Z,59.63
2022-12-23T17:12:35.546Z,48.47
2022-12-23T17:17:38.728Z,44.70
2022-12-23T17:22:44.982Z,47.87
2022-12-23T17:27:52.079Z,43.03
2022-12-23T17:32:57.878Z,35.13
2022-12-23T17:38:01.122Z,40.37
2022-12-23T17:43:03.707Z,46.33
2022-12-23T17:48:06.501Z,27.63
2022-12-23T17:53:14.779Z,30.33
2022-12-23T17:58:17.248Z,33.87
2022-12-23T18:03:23.881Z,40.90
2022-12-23T18:08:26.366Z,35.30
2022-12-23T18:13:28.905Z,44.87
2022-12-23T18:18:43.808Z,38.47
2022-12-23T18:23:48.593Z,42.37
2022-12-23T18:28:51.525Z,35.00
2022-12-23T18:33:54.026Z,42.20
2022-12-23T18:38:57.292Z,52.37
2022-12-23T18:43:59.832Z,44.10
2022-12-23T18:49:02.337Z,45.43
2022-12-23T18:54:04.907Z,66.93
2022-12-23T18:59:27.508Z,88.53
2022-12-23T19:04:32.151Z,104.80
2022-12-23T19:09:34.685Z,99.40
2022-12-23T19:14:39.252Z,93.83
2022-12-23T19:19:41.852Z,65.60
2022-12-23T19:25:03.819Z,119.77
2022-12-23T19:30:09.710Z,129.27
2022-12-23T19:35:15.597Z,102.17
2022-12-23T19:40:18.452Z,121.97
2022-12-23T19:45:20.964Z,119.90
2022-12-23T19:50:23.678Z,98.57
2022-12-23T19:55:26.186Z,74.13
2022-12-23T20:00:28.753Z,75.73
2022-12-23T20:05:31.193Z,76.87
2022-12-23T20:10:33.755Z,80.13
2022-12-23T20:15:36.351Z,66.23
2022-12-23T20:20:38.982Z,116.03
2022-12-23T20:25:41.380Z,173.70
2022-12-23T20:30:44.064Z,186.13
2022-12-23T20:35:46.729Z,236.00
2022-12-23T20:40:49.178Z,201.47
2022-12-23T20:45:52.391Z,188.60
2022-12-23T20:50:55.044Z,221.97
2022-12-23T20:56:05.238Z,160.10
2022-12-23T21:01:09.704Z,158.33
2022-12-23T21:06:12.374Z,148.30
2022-12-23T21:11:15.821Z,143.73
2022-12-23T21:16:18.727Z,159.97
2022-12-23T21:21:26.694Z,184.67
2022-12-23T21:26:30.760Z,340.63
2022-12-23T21:31:35.552Z,143.43
2022-12-23T21:36:39.504Z,155.97
2022-12-23T21:41:42.630Z,166.67
2022-12-23T21:46:45.365Z,153.43
2022-12-23T21:51:47.909Z,144.73
2022-12-23T21:56:50.454Z,137.87
2022-12-23T22:01:53.049Z,133.47
2022-12-23T22:06:55.544Z,104.80
2022-12-23T22:11:58.218Z,154.30
2022-12-23T22:17:00.781Z,120.77
2022-12-23T22:22:03.254Z,133.23
2022-12-23T22:27:05.734Z,114.27
2022-12-23T22:32:08.313Z,129.93
2022-12-23T22:37:10.808Z,31.53
2022-12-23T22:42:13.532Z,55.03
2022-12-23T22:47:16.039Z,53.53
2022-12-23T22:52:18.525Z,65.53
2022-12-23T22:57:20.953Z,68.50
2022-12-23T23:02:25.427Z,87.67
2022-12-23T23:07:28.060Z,60.70
2022-12-23T23:12:30.469Z,47.07
2022-12-23T23:17:33.503Z,51.83
2022-12-23T23:22:36.054Z,29.37
2022-12-23T23:27:41.886Z,33.90
2022-12-23T23:32:44.390Z,43.57
2022-12-23T23:37:46.891Z,35.23
2022-12-23T23:42:49.480Z,39.73
2022-12-23T23:47:51.924Z,28.53
2022-12-23T23:52:54.454Z,36.67
2022-12-23T23:57:57.514Z,40.50
